Time;durP1;ratioP1;P1;durP2;ratioP2;P2;SDS_P1;SDS_P2;PMS_P1;PMS_P2;Temp;Humidity;BMP_temperature;BMP_pressure;BME280_temperature;BME280_humidity;BME280_pressure;Samples;Min_cycle;Max_cycle;Signal;HPM_P1;HPM_P2
2023/07/18 00:02:05;;;;;;;9.40;3.40;;;;;;;;;;4990291;28;20216;-58
2023/07/18 00:04:31;;;;;;;9.88;3.22;;;;;;;;;;4990865;28;20224;-58
2023/07/18 00:06:56;;;;;;;9.93;3.10;;;;;;;;;;4988455;28;20205;-58
2023/07/18 00:09:21;;;;;;;9.32;2.83;;;;;;;;;;4990106;28;20233;-58
2023/07/18 00:11:47;;;;;;;8.55;2.75;;;;;;;;;;4991040;28;21319;-58
2023/07/18 00:14:13;;;;;;;5.80;3.00;;;;;;;;;;4978017;28;20216;-58
2023/07/18 00:16:38;;;;;;;9.25;3.22;;;;;;;;;;4979584;28;20260;-58
2023/07/18 00:19:04;;;;;;;9.05;2.70;;;;;;;;;;4980561;28;20689;-59
2023/07/18 00:21:29;;;;;;;8.02;2.63;;;;;;;;;;4980184;28;20217;-58
2023/07/18 00:23:54;;;;;;;8.30;2.67;;;;;;;;;;4976265;28;20414;-58
2023/07/18 00:26:20;;;;;;;10.02;2.72;;;;;;;;;;4973133;28;20223;-58
2023/07/18 00:28:47;;;;;;;7.65;2.22;;;;;;;;;;4972684;28;20756;-58
2023/07/18 00:31:12;;;;;;;10.07;2.67;;;;;;;;;;4973641;28;20221;-58
2023/07/18 00:33:37;;;;;;;10.30;3.00;;;;;;;;;;4983987;28;20247;-58
2023/07/18 00:36:03;;;;;;;8.13;2.38;;;;;;;;;;4978792;28;20770;-58
2023/07/18 00:38:28;;;;;;;8.15;2.72;;;;;;;;;;4980486;28;20272;-58
2023/07/18 00:40:53;;;;;;;11.23;2.65;;;;;;;;;;4980228;28;20241;-58
2023/07/18 00:43:19;;;;;;;10.45;2.50;;;;;;;;;;4978156;28;20244;-58
2023/07/18 00:45:45;;;;;;;6.53;2.63;;;;;;;;;;4979066;28;20236;-58
2023/07/18 00:48:10;;;;;;;7.72;2.67;;;;;;;;;;4954829;28;20267;-58
2023/07/18 00:50:35;;;;;;;4.47;1.95;;;;;;;;;;4970480;28;20635;-58
2023/07/18 00:53:01;;;;;;;8.57;2.28;;;;;;;;;;4954196;28;20210;-58
2023/07/18 00:55:26;;;;;;;9.65;2.33;;;;;;;;;;4962508;28;21011;-58
2023/07/18 00:57:51;;;;;;;8.25;2.50;;;;;;;;;;4978714;28;20267;-59
2023/07/18 01:00:17;;;;;;;11.98;2.47;;;;;;;;;;4960909;28;20357;-58
2023/07/18 01:02:43;;;;;;;11.93;2.85;;;;;;;;;;4980454;28;20275;-58
2023/07/18 01:05:08;;;;;;;7.55;2.53;;;;;;;;;;4978339;28;20213;-58
2023/07/18 01:07:34;;;;;;;7.78;2.28;;;;;;;;;;4978913;28;20318;-58
2023/07/18 01:10:14;;;;;;;9.38;2.70;;;;;;;;;;4975611;28;20245;-58
2023/07/18 01:12:39;;;;;;;7.00;2.03;;;;;;;;;;4970998;28;20578;-58
2023/07/18 01:15:04;;;;;;;6.60;2.30;;;;;;;;;;4970471;28;20248;-58
2023/07/18 01:17:30;;;;;;;11.45;3.00;;;;;;;;;;4976249;28;20673;-58
2023/07/18 01:19:55;;;;;;;7.05;2.30;;;;;;;;;;4961683;28;20220;-58
2023/07/18 01:22:20;;;;;;;9.00;2.40;;;;;;;;;;4978560;28;20229;-58
2023/07/18 01:24:46;;;;;;;7.43;2.42;;;;;;;;;;4978440;28;20721;-58
2023/07/18 01:27:11;;;;;;;5.80;2.30;;;;;;;;;;4978584;28;20217;-58
2023/07/18 01:29:36;;;;;;;7.18;2.17;;;;;;;;;;4979802;28;20236;-58
2023/07/18 01:32:02;;;;;;;7.57;2.70;;;;;;;;;;4974183;28;20285;-58
2023/07/18 01:34:27;;;;;;;9.15;2.55;;;;;;;;;;4971608;28;20451;-58
2023/07/18 01:36:52;;;;;;;8.15;2.08;;;;;;;;;;4971858;28;21160;-58
2023/07/18 01:39:18;;;;;;;7.05;2.40;;;;;;;;;;4972955;28;20213;-58
2023/07/18 01:41:43;;;;;;;8.15;2.50;;;;;;;;;;4978153;28;20213;-58
2023/07/18 01:44:08;;;;;;;6.93;2.40;;;;;;;;;;4978594;28;20221;-58
2023/07/18 01:46:34;;;;;;;10.00;2.63;;;;;;;;;;4978664;28;20229;-58
2023/07/18 01:48:59;;;;;;;8.43;2.55;;;;;;;;;;4979581;28;20255;-58
2023/07/18 01:51:24;;;;;;;8.68;2.83;;;;;;;;;;4981410;28;20240;-58
2023/07/18 01:53:50;;;;;;;6.78;2.50;;;;;;;;;;4976395;28;20225;-58
2023/07/18 01:56:15;;;;;;;5.65;2.25;;;;;;;;;;4970734;28;20240;-58
2023/07/18 01:58:40;;;;;;;6.60;2.33;;;;;;;;;;4970800;28;20248;-58
2023/07/18 02:01:05;;;;;;;10.40;2.50;;;;;;;;;;4969790;28;20236;-58
2023/07/18 02:03:31;;;;;;;5.00;2.03;;;;;;;;;;4977534;28;20908;-58
2023/07/18 02:05:57;;;;;;;7.07;2.28;;;;;;;;;;4979405;28;20688;-58
2023/07/18 02:08:22;;;;;;;10.70;2.85;;;;;;;;;;4977309;28;20743;-58
2023/07/18 02:10:48;;;;;;;6.93;2.75;;;;;;;;;;4977491;28;20258;-58
2023/07/18 02:13:13;;;;;;;9.82;2.63;;;;;;;;;;4978744;28;20624;-58
2023/07/18 02:15:38;;;;;;;8.57;2.40;;;;;;;;;;4978455;28;20603;-58
2023/07/18 02:18:04;;;;;;;11.60;2.83;;;;;;;;;;4984486;28;20672;-58
2023/07/18 02:20:29;;;;;;;5.60;2.20;;;;;;;;;;4988045;28;20205;-58
2023/07/18 02:22:56;;;;;;;10.50;2.70;;;;;;;;;;4987887;28;20221;-58
2023/07/18 02:25:21;;;;;;;8.68;2.38;;;;;;;;;;4986353;28;20315;-58
2023/07/18 02:27:46;;;;;;;7.47;2.42;;;;;;;;;;4988094;28;20327;-58
2023/07/18 02:30:12;;;;;;;8.45;2.58;;;;;;;;;;4986809;28;20221;-58
2023/07/18 02:32:38;;;;;;;8.70;2.42;;;;;;;;;;4987613;28;20224;-58
2023/07/18 02:35:04;;;;;;;9.15;2.30;;;;;;;;;;4968780;28;20224;-58
2023/07/18 02:37:30;;;;;;;6.72;2.42;;;;;;;;;;4988025;28;20205;-58
2023/07/18 02:39:55;;;;;;;9.50;2.53;;;;;;;;;;4988454;28;20689;-58
2023/07/18 02:42:20;;;;;;;6.60;2.40;;;;;;;;;;4985350;28;20319;-58
2023/07/18 02:44:46;;;;;;;9.25;2.55;;;;;;;;;;4987532;28;20264;-58
2023/07/18 02:47:11;;;;;;;6.65;2.33;;;;;;;;;;4987761;28;20228;-58
2023/07/18 02:49:37;;;;;;;9.13;2.55;;;;;;;;;;4990060;28;20306;-58
2023/07/18 02:52:03;;;;;;;7.82;2.50;;;;;;;;;;4988571;28;20247;-58
2023/07/18 02:54:29;;;;;;;10.18;2.60;;;;;;;;;;4987660;28;20217;-58
2023/07/18 02:56:56;;;;;;;6.85;2.30;;;;;;;;;;4987198;28;20263;-58
2023/07/18 02:59:21;;;;;;;5.93;2.03;;;;;;;;;;4986785;28;20233;-59
2023/07/18 03:01:49;;;;;;;4.65;2.10;;;;;;;;;;4987889;28;20220;-58
2023/07/18 03:04:15;;;;;;;6.88;2.33;;;;;;;;;;4985246;28;20209;-58
2023/07/18 03:06:40;;;;;;;9.52;2.50;;;;;;;;;;4987379;28;20217;-58
2023/07/18 03:09:06;;;;;;;6.30;2.45;;;;;;;;;;4991078;28;20225;-59
2023/07/18 03:11:31;;;;;;;6.38;2.10;;;;;;;;;;4990430;28;20628;-58
2023/07/18 03:13:56;;;;;;;7.47;2.25;;;;;;;;;;4990696;28;20594;-58
2023/07/18 03:16:22;;;;;;;5.47;2.28;;;;;;;;;;4991289;28;20213;-58
2023/07/18 03:18:47;;;;;;;6.88;2.40;;;;;;;;;;4990367;28;20212;-58
2023/07/18 03:21:13;;;;;;;7.72;2.25;;;;;;;;;;4989630;28;20217;-58
2023/07/18 03:23:38;;;;;;;7.78;2.20;;;;;;;;;;4992035;28;20217;-58
2023/07/18 03:26:03;;;;;;;6.82;2.28;;;;;;;;;;4976210;28;20494;-58
2023/07/18 03:28:29;;;;;;;8.63;2.30;;;;;;;;;;4971502;28;20275;-58
2023/07/18 03:30:54;;;;;;;7.03;2.40;;;;;;;;;;4973959;28;20591;-58
2023/07/18 03:33:19;;;;;;;10.85;2.92;;;;;;;;;;4976876;28;21273;-58
2023/07/18 03:35:44;;;;;;;7.65;2.40;;;;;;;;;;4980220;28;20212;-58
2023/07/18 03:38:10;;;;;;;6.10;2.22;;;;;;;;;;4980473;28;20248;-58
2023/07/18 03:40:35;;;;;;;7.07;2.30;;;;;;;;;;4981533;28;20288;-58
2023/07/18 03:43:01;;;;;;;8.23;2.25;;;;;;;;;;4980556;28;20212;-59
2023/07/18 03:45:26;;;;;;;7.20;2.42;;;;;;;;;;4980109;28;20229;-58
2023/07/18 03:47:51;;;;;;;8.20;2.45;;;;;;;;;;4979612;28;20229;-58
2023/07/18 03:50:17;;;;;;;8.07;2.35;;;;;;;;;;4973504;28;20225;-58
2023/07/18 03:52:42;;;;;;;4.95;2.15;;;;;;;;;;4971530;28;21192;-58
2023/07/18 03:55:08;;;;;;;7.50;2.42;;;;;;;;;;4973768;28;20252;-59
2023/07/18 03:57:33;;;;;;;11.95;2.45;;;;;;;;;;4981926;28;20248;-58
2023/07/18 03:59:59;;;;;;;7.18;2.20;;;;;;;;;;4979873;28;20339;-59
2023/07/18 04:02:24;;;;;;;9.88;2.50;;;;;;;;;;4979314;28;20291;-58
2023/07/18 04:04:50;;;;;;;8.55;2.40;;;;;;;;;;4981132;28;20205;-58
2023/07/18 04:07:15;;;;;;;10.13;2.72;;;;;;;;;;4980641;28;20626;-58
2023/07/18 04:09:41;;;;;;;10.05;3.03;;;;;;;;;;4978686;28;20224;-58
2023/07/18 04:12:07;;;;;;;6.93;2.70;;;;;;;;;;4975163;28;20705;-58
2023/07/18 04:14:32;;;;;;;6.18;2.30;;;;;;;;;;4973229;28;20659;-58
2023/07/18 04:16:57;;;;;;;5.18;2.35;;;;;;;;;;4971000;28;20790;-58
2023/07/18 04:19:23;;;;;;;9.88;2.75;;;;;;;;;;4977827;28;20228;-58
2023/07/18 04:21:48;;;;;;;8.23;2.70;;;;;;;;;;4980396;28;20221;-58
2023/07/18 04:24:13;;;;;;;8.65;2.40;;;;;;;;;;4978952;28;20209;-59
2023/07/18 04:26:39;;;;;;;7.07;2.83;;;;;;;;;;4979890;28;20217;-58
2023/07/18 04:29:04;;;;;;;9.65;2.80;;;;;;;;;;4979798;28;20256;-59
2023/07/18 04:31:30;;;;;;;7.95;2.55;;;;;;;;;;4980441;28;20216;-58
2023/07/18 04:33:55;;;;;;;7.38;2.70;;;;;;;;;;4975374;28;20299;-58
2023/07/18 04:36:20;;;;;;;7.28;2.70;;;;;;;;;;4971811;28;20283;-58
2023/07/18 04:38:45;;;;;;;6.28;2.60;;;;;;;;;;4973221;28;20221;-59
2023/07/18 04:41:11;;;;;;;5.85;2.60;;;;;;;;;;4974066;28;20213;-59
2023/07/18 04:43:36;;;;;;;7.78;2.85;;;;;;;;;;4979626;28;20209;-58
2023/07/18 04:46:03;;;;;;;7.40;2.80;;;;;;;;;;4979612;28;20235;-60
2023/07/18 04:48:29;;;;;;;10.27;2.70;;;;;;;;;;4979291;28;20225;-58
2023/07/18 04:50:58;;;;;;;6.95;2.47;;;;;;;;;;4980217;28;20311;-58
2023/07/18 04:53:24;;;;;;;7.90;2.60;;;;;;;;;;4983103;28;20244;-59
2023/07/18 04:55:50;;;;;;;7.68;2.72;;;;;;;;;;4977085;28;20552;-59
2023/07/18 04:58:15;;;;;;;6.50;2.72;;;;;;;;;;4972560;28;20217;-58
2023/07/18 05:00:41;;;;;;;7.25;2.65;;;;;;;;;;4971546;28;20303;-58
2023/07/18 05:03:06;;;;;;;10.82;2.92;;;;;;;;;;4972105;28;20572;-58
2023/07/18 05:05:32;;;;;;;7.97;3.00;;;;;;;;;;4985516;28;20213;-59
2023/07/18 05:07:59;;;;;;;5.85;2.65;;;;;;;;;;4989632;28;20224;-59
2023/07/18 05:10:24;;;;;;;6.20;2.50;;;;;;;;;;4987196;28;20315;-59
2023/07/18 05:12:53;;;;;;;8.77;3.00;;;;;;;;;;4988005;28;20308;-59
2023/07/18 05:15:18;;;;;;;12.02;3.47;;;;;;;;;;4970853;28;20444;-58
2023/07/18 05:17:44;;;;;;;14.43;3.67;;;;;;;;;;4988820;28;20217;-58
2023/07/18 05:20:11;;;;;;;14.82;4.80;;;;;;;;;;4986718;28;20911;-59
2023/07/18 05:22:38;;;;;;;17.55;5.22;;;;;;;;;;4989135;28;20304;-59
2023/07/18 05:25:04;;;;;;;11.27;4.72;;;;;;;;;;4989184;28;20263;-59
2023/07/18 05:27:30;;;;;;;10.93;4.43;;;;;;;;;;4985660;28;20287;-59
2023/07/18 05:29:55;;;;;;;11.38;4.70;;;;;;;;;;4988816;28;20693;-59
2023/07/18 05:32:21;;;;;;;10.88;4.97;;;;;;;;;;4988354;28;20304;-59
2023/07/18 05:34:46;;;;;;;11.18;4.95;;;;;;;;;;4987184;28;20233;-58
2023/07/18 05:37:11;;;;;;;19.35;5.88;;;;;;;;;;4987414;28;21004;-59
2023/07/18 05:39:37;;;;;;;14.43;5.22;;;;;;;;;;4988580;28;20711;-59
2023/07/18 05:42:02;;;;;;;12.15;4.78;;;;;;;;;;4987837;28;20612;-59
2023/07/18 05:44:28;;;;;;;10.75;4.80;;;;;;;;;;4986987;28;20985;-59
2023/07/18 05:46:53;;;;;;;11.80;5.22;;;;;;;;;;4987663;28;20284;-60
2023/07/18 05:49:18;;;;;;;11.67;5.37;;;;;;;;;;4987471;28;20479;-60
2023/07/18 05:51:44;;;;;;;13.60;5.13;;;;;;;;;;4986261;28;20668;-60
2023/07/18 05:54:09;;;;;;;14.25;5.07;;;;;;;;;;4987353;28;20582;-60
2023/07/18 05:56:34;;;;;;;14.10;5.40;;;;;;;;;;4988422;28;20281;-60
2023/07/18 05:59:00;;;;;;;14.32;5.30;;;;;;;;;;4987119;28;20323;-60
2023/07/18 06:01:25;;;;;;;11.02;5.18;;;;;;;;;;4968899;28;20224;-60
2023/07/18 06:03:51;;;;;;;11.40;4.82;;;;;;;;;;4988859;28;20213;-60
2023/07/18 06:06:17;;;;;;;11.65;4.97;;;;;;;;;;4982713;28;20212;-59
2023/07/18 06:08:42;;;;;;;9.50;4.85;;;;;;;;;;4985591;28;20220;-59
2023/07/18 06:11:07;;;;;;;10.35;4.97;;;;;;;;;;4987749;28;20233;-59
2023/07/18 06:13:33;;;;;;;9.77;5.50;;;;;;;;;;4988484;28;20233;-59
2023/07/18 06:15:58;;;;;;;12.55;5.38;;;;;;;;;;4985722;28;20255;-59
2023/07/18 06:18:24;;;;;;;11.77;4.82;;;;;;;;;;4988021;28;20224;-59
2023/07/18 06:20:49;;;;;;;11.35;5.47;;;;;;;;;;4988236;28;20226;-59
2023/07/18 06:23:15;;;;;;;9.13;4.40;;;;;;;;;;4985846;28;20220;-59
2023/07/18 06:25:40;;;;;;;9.23;4.93;;;;;;;;;;4987348;28;20265;-59
2023/07/18 06:28:06;;;;;;;10.25;5.20;;;;;;;;;;4987753;28;20213;-59
2023/07/18 06:30:32;;;;;;;11.07;5.10;;;;;;;;;;4987552;28;20243;-59
2023/07/18 06:32:58;;;;;;;11.15;5.90;;;;;;;;;;4986075;28;20310;-59
2023/07/18 06:35:24;;;;;;;9.65;5.10;;;;;;;;;;4987155;28;20248;-59
2023/07/18 06:37:49;;;;;;;11.18;5.75;;;;;;;;;;4989604;28;20205;-59
2023/07/18 06:40:15;;;;;;;10.45;5.68;;;;;;;;;;4986394;28;20216;-59
2023/07/18 06:42:40;;;;;;;12.77;5.70;;;;;;;;;;4986626;28;20223;-59
2023/07/18 06:45:06;;;;;;;10.25;4.47;;;;;;;;;;4987104;28;20708;-60
2023/07/18 06:47:31;;;;;;;11.57;5.45;;;;;;;;;;4969829;28;20217;-59
2023/07/18 06:49:57;;;;;;;11.57;5.60;;;;;;;;;;4985686;28;20251;-59
2023/07/18 06:52:22;;;;;;;9.77;5.00;;;;;;;;;;4969438;28;20355;-59
2023/07/18 06:54:48;;;;;;;10.95;5.78;;;;;;;;;;4987360;28;20284;-59
2023/07/18 06:57:15;;;;;;;9.45;5.00;;;;;;;;;;4984011;28;20304;-59
2023/07/18 06:59:41;;;;;;;10.48;4.80;;;;;;;;;;4983868;28;20224;-59
2023/07/18 07:02:08;;;;;;;9.88;5.18;;;;;;;;;;4991945;28;20229;-60
2023/07/18 07:04:34;;;;;;;12.43;4.65;;;;;;;;;;4982506;28;20209;-60
2023/07/18 07:07:00;;;;;;;9.95;4.88;;;;;;;;;;4986080;28;20228;-60
2023/07/18 07:09:25;;;;;;;13.20;5.32;;;;;;;;;;4987092;28;20233;-59
2023/07/18 07:11:50;;;;;;;10.63;4.63;;;;;;;;;;4986686;28;20213;-60
2023/07/18 07:14:16;;;;;;;10.07;4.63;;;;;;;;;;4982127;28;20229;-60
2023/07/18 07:16:41;;;;;;;9.05;4.15;;;;;;;;;;4990289;28;20217;-59
2023/07/18 07:19:07;;;;;;;7.85;4.00;;;;;;;;;;4984398;28;20701;-59
2023/07/18 07:21:33;;;;;;;8.73;3.83;;;;;;;;;;4985176;28;20229;-59
2023/07/18 07:23:58;;;;;;;7.00;3.20;;;;;;;;;;4987592;28;20213;-59
2023/07/18 07:26:24;;;;;;;9.65;3.45;;;;;;;;;;4986323;28;20224;-58
2023/07/18 07:28:49;;;;;;;6.03;2.65;;;;;;;;;;4987071;28;20217;-59
2023/07/18 07:31:15;;;;;;;9.32;3.00;;;;;;;;;;4986033;28;20628;-59
2023/07/18 07:33:40;;;;;;;9.38;3.25;;;;;;;;;;4987305;28;20244;-58
2023/07/18 07:36:06;;;;;;;8.13;3.25;;;;;;;;;;4987135;28;20259;-58
2023/07/18 07:38:32;;;;;;;7.35;3.20;;;;;;;;;;4985328;28;20221;-57
2023/07/18 07:40:57;;;;;;;8.82;2.95;;;;;;;;;;4987150;28;20222;-57
2023/07/18 07:43:22;;;;;;;7.28;2.80;;;;;;;;;;4987327;28;20216;-58
2023/07/18 07:45:48;;;;;;;8.57;3.10;;;;;;;;;;4986095;28;20229;-58
2023/07/18 07:48:13;;;;;;;8.30;2.95;;;;;;;;;;4985979;28;21056;-58
2023/07/18 07:50:39;;;;;;;7.15;3.10;;;;;;;;;;4987475;28;20588;-58
2023/07/18 07:53:04;;;;;;;8.63;3.13;;;;;;;;;;4964974;28;20674;-58
2023/07/18 07:55:30;;;;;;;9.23;3.20;;;;;;;;;;4985026;28;20715;-57
2023/07/18 07:57:55;;;;;;;7.28;3.30;;;;;;;;;;4991756;28;20240;-57
2023/07/18 08:00:21;;;;;;;8.15;2.72;;;;;;;;;;4992392;28;20314;-57
2023/07/18 08:02:46;;;;;;;10.27;3.00;;;;;;;;;;4991284;28;20408;-57
2023/07/18 08:05:12;;;;;;;8.93;2.72;;;;;;;;;;4990579;28;20291;-58
2023/07/18 08:07:38;;;;;;;7.32;2.72;;;;;;;;;;4987352;28;20209;-58
2023/07/18 08:10:03;;;;;;;7.03;2.70;;;;;;;;;;4981838;28;20225;-58
2023/07/18 08:12:29;;;;;;;7.90;2.45;;;;;;;;;;4991046;28;20221;-57
2023/07/18 08:14:54;;;;;;;6.53;2.42;;;;;;;;;;4988447;28;20308;-57
2023/07/18 08:17:20;;;;;;;7.20;2.55;;;;;;;;;;4988895;28;20308;-57
2023/07/18 08:19:45;;;;;;;9.13;2.60;;;;;;;;;;4991020;28;20340;-57
2023/07/18 08:22:11;;;;;;;6.57;2.28;;;;;;;;;;4988868;28;20664;-57
2023/07/18 08:24:36;;;;;;;7.80;2.83;;;;;;;;;;4988435;28;20217;-57
2023/07/18 08:27:01;;;;;;;6.68;2.40;;;;;;;;;;4990174;28;20245;-58
2023/07/18 08:29:27;;;;;;;5.53;2.75;;;;;;;;;;4972828;28;20716;-57
2023/07/18 08:31:54;;;;;;;7.50;2.70;;;;;;;;;;4987380;28;20267;-58
2023/07/18 08:34:19;;;;;;;6.80;2.67;;;;;;;;;;4987428;28;20236;-57
2023/07/18 08:36:46;;;;;;;5.60;2.58;;;;;;;;;;4989620;28;20224;-57
2023/07/18 08:39:11;;;;;;;7.47;2.30;;;;;;;;;;4988825;28;20220;-57
2023/07/18 08:41:37;;;;;;;5.82;2.55;;;;;;;;;;4989047;28;20213;-57
2023/07/18 08:44:02;;;;;;;7.35;2.50;;;;;;;;;;4989190;28;20217;-58
2023/07/18 08:46:27;;;;;;;6.90;2.10;;;;;;;;;;4989927;28;20240;-57
2023/07/18 08:48:53;;;;;;;5.47;2.20;;;;;;;;;;4988196;28;20300;-57
2023/07/18 08:51:20;;;;;;;6.90;1.90;;;;;;;;;;4971501;28;20359;-57
2023/07/18 08:53:45;;;;;;;3.38;1.58;;;;;;;;;;4972797;28;20225;-57
2023/07/18 08:56:10;;;;;;;5.07;1.90;;;;;;;;;;4987793;28;20212;-58
2023/07/18 08:58:37;;;;;;;7.30;1.67;;;;;;;;;;4988926;28;21070;-57
2023/07/18 09:01:08;;;;;;;4.88;1.25;;;;;;;;;;4989804;28;20683;-58
2023/07/18 09:03:33;;;;;;;5.03;1.08;;;;;;;;;;4988717;28;20237;-57
2023/07/18 09:06:16;;;;;;;5.35;1.30;;;;;;;;;;4987936;28;20294;-57
2023/07/18 09:08:42;;;;;;;7.60;1.40;;;;;;;;;;4989509;28;20668;-58
2023/07/18 09:11:07;;;;;;;5.10;1.60;;;;;;;;;;4988240;28;20264;-58
2023/07/18 09:13:39;;;;;;;6.80;1.33;;;;;;;;;;4988151;28;20229;-57
2023/07/18 09:16:12;;;;;;;8.20;1.50;;;;;;;;;;4988156;28;20227;-58
2023/07/18 09:18:38;;;;;;;4.15;1.10;;;;;;;;;;4988716;28;20590;-58
2023/07/18 09:21:08;;;;;;;3.90;1.27;;;;;;;;;;4988937;28;20223;-58
2023/07/18 09:23:38;;;;;;;7.53;1.40;;;;;;;;;;4987606;28;20263;-57
2023/07/18 09:26:07;;;;;;;4.35;1.40;;;;;;;;;;4988201;28;20296;-58
2023/07/18 09:28:33;;;;;;;3.55;1.15;;;;;;;;;;4989619;28;20296;-57
2023/07/18 09:30:58;;;;;;;4.10;1.17;;;;;;;;;;4988144;28;20217;-57
2023/07/18 09:33:24;;;;;;;4.20;1.08;;;;;;;;;;4986119;28;20217;-58
2023/07/18 09:35:49;;;;;;;4.57;1.30;;;;;;;;;;4971516;28;20214;-58
2023/07/18 09:38:15;;;;;;;3.22;1.15;;;;;;;;;;4988827;28;20304;-59
2023/07/18 09:40:40;;;;;;;5.95;1.23;;;;;;;;;;4969605;28;20219;-59
2023/07/18 09:43:05;;;;;;;4.97;1.00;;;;;;;;;;4990092;28;20236;-59
2023/07/18 09:45:31;;;;;;;5.57;1.20;;;;;;;;;;4989158;28;20871;-59
2023/07/18 09:47:56;;;;;;;5.68;1.00;;;;;;;;;;4989073;28;20275;-59
2023/07/18 09:50:22;;;;;;;3.70;1.05;;;;;;;;;;4968488;28;20263;-59
2023/07/18 09:52:49;;;;;;;4.47;0.90;;;;;;;;;;4988287;28;20212;-59
2023/07/18 09:55:14;;;;;;;4.32;0.95;;;;;;;;;;4988101;28;20221;-59
2023/07/18 09:57:40;;;;;;;4.75;1.08;;;;;;;;;;4966990;28;20540;-59
2023/07/18 10:00:06;;;;;;;3.88;1.15;;;;;;;;;;4982381;28;20687;-59
2023/07/18 10:02:32;;;;;;;2.50;0.93;;;;;;;;;;4971063;28;20213;-58
2023/07/18 10:04:58;;;;;;;3.45;1.15;;;;;;;;;;4988578;28;20296;-59
2023/07/18 10:07:23;;;;;;;3.28;1.10;;;;;;;;;;4985679;28;20656;-59
2023/07/18 10:09:48;;;;;;;6.40;1.30;;;;;;;;;;4988934;28;20225;-58
2023/07/18 10:12:14;;;;;;;3.95;0.90;;;;;;;;;;4988186;28;20228;-58
2023/07/18 10:14:42;;;;;;;2.50;0.77;;;;;;;;;;4986268;28;20279;-58
2023/07/18 10:17:07;;;;;;;3.10;0.70;;;;;;;;;;4987071;28;20240;-59
2023/07/18 10:19:46;;;;;;;2.33;0.68;;;;;;;;;;4988282;28;20241;-59
2023/07/18 10:22:11;;;;;;;4.82;0.93;;;;;;;;;;4987088;28;20572;-59
2023/07/18 10:24:36;;;;;;;2.75;0.90;;;;;;;;;;4986599;28;20700;-58
2023/07/18 10:27:07;;;;;;;3.00;0.98;;;;;;;;;;4987694;28;20783;-59
2023/07/18 10:29:32;;;;;;;2.45;0.82;;;;;;;;;;4987440;28;20237;-59
2023/07/18 10:31:59;;;;;;;2.72;0.70;;;;;;;;;;4986939;28;20291;-59
2023/07/18 10:34:25;;;;;;;3.00;0.77;;;;;;;;;;4987047;28;20233;-58
2023/07/18 10:36:54;;;;;;;1.70;0.60;;;;;;;;;;4988048;28;20227;-59
2023/07/18 10:39:20;;;;;;;3.25;0.77;;;;;;;;;;4987277;28;20229;-58
2023/07/18 10:41:45;;;;;;;2.88;0.90;;;;;;;;;;4968983;28;20743;-59
2023/07/18 10:44:12;;;;;;;2.85;0.90;;;;;;;;;;4986900;28;20271;-58
2023/07/18 10:46:38;;;;;;;1.67;0.77;;;;;;;;;;4988573;28;20295;-59
2023/07/18 10:49:03;;;;;;;4.57;0.80;;;;;;;;;;4984725;28;20236;-59
2023/07/18 10:51:29;;;;;;;2.95;0.70;;;;;;;;;;4987881;28;20221;-59
2023/07/18 10:53:55;;;;;;;1.67;0.60;;;;;;;;;;4988299;28;20224;-59
2023/07/18 10:56:22;;;;;;;4.90;0.88;;;;;;;;;;4985747;28;20747;-59
2023/07/18 10:58:47;;;;;;;2.53;0.90;;;;;;;;;;4986931;28;20221;-59
2023/07/18 11:01:12;;;;;;;2.45;0.73;;;;;;;;;;4987645;28;20568;-59
2023/07/18 11:03:42;;;;;;;4.93;0.70;;;;;;;;;;4986785;28;20680;-59
2023/07/18 11:06:08;;;;;;;2.13;0.60;;;;;;;;;;4967165;28;20299;-59
2023/07/18 11:08:33;;;;;;;2.83;0.80;;;;;;;;;;4987587;28;20220;-60
2023/07/18 11:10:59;;;;;;;1.90;0.73;;;;;;;;;;4987006;28;20233;-59
2023/07/18 11:13:27;;;;;;;4.80;0.80;;;;;;;;;;4985129;28;20247;-60
2023/07/18 11:15:52;;;;;;;5.53;0.80;;;;;;;;;;4987203;28;20225;-59
2023/07/18 11:18:18;;;;;;;1.83;0.60;;;;;;;;;;4972190;28;20270;-59
2023/07/18 11:20:43;;;;;;;3.90;0.90;;;;;;;;;;4988588;28;20272;-59
2023/07/18 11:23:08;;;;;;;5.60;1.10;;;;;;;;;;4987279;28;20221;-59
2023/07/18 11:25:34;;;;;;;2.92;0.60;;;;;;;;;;4985419;28;20300;-59
2023/07/18 11:28:02;;;;;;;1.98;0.80;;;;;;;;;;4987810;28;20319;-59
2023/07/18 11:30:28;;;;;;;3.15;0.80;;;;;;;;;;4991042;28;20379;-59
2023/07/18 11:32:53;;;;;;;2.33;0.73;;;;;;;;;;4988823;28;20293;-59
2023/07/18 11:35:19;;;;;;;3.00;0.65;;;;;;;;;;4990140;28;20245;-59
2023/07/18 11:37:46;;;;;;;1.63;0.50;;;;;;;;;;4991516;28;20237;-59
2023/07/18 11:40:17;;;;;;;2.33;0.73;;;;;;;;;;4989486;28;20216;-59
2023/07/18 11:42:44;;;;;;;2.15;0.85;;;;;;;;;;4989732;28;20270;-59
2023/07/18 11:45:09;;;;;;;2.85;0.80;;;;;;;;;;4989599;28;20336;-59
2023/07/18 11:47:35;;;;;;;3.47;1.00;;;;;;;;;;4991325;28;20312;-59
2023/07/18 11:50:01;;;;;;;5.47;1.00;;;;;;;;;;4988076;28;20852;-59
2023/07/18 11:52:27;;;;;;;3.17;0.77;;;;;;;;;;4990360;28;20227;-59
2023/07/18 11:54:52;;;;;;;3.88;0.77;;;;;;;;;;4991093;28;20224;-58
2023/07/18 11:57:17;;;;;;;2.22;0.80;;;;;;;;;;4989428;28;20213;-58
2023/07/18 11:59:43;;;;;;;1.30;0.60;;;;;;;;;;4989506;28;20236;-59
2023/07/18 12:02:09;;;;;;;3.63;0.77;;;;;;;;;;4989822;28;20267;-59
2023/07/18 12:04:34;;;;;;;8.63;0.93;;;;;;;;;;4990984;28;20244;-59
2023/07/18 12:07:00;;;;;;;3.42;0.70;;;;;;;;;;4993528;28;20653;-58
2023/07/18 12:09:25;;;;;;;4.88;1.10;;;;;;;;;;4988672;28;20978;-58
2023/07/18 12:11:51;;;;;;;5.30;1.00;;;;;;;;;;4991671;28;20319;-58
2023/07/18 12:14:16;;;;;;;3.92;1.10;;;;;;;;;;4989131;28;20211;-59
2023/07/18 12:16:41;;;;;;;3.15;1.00;;;;;;;;;;4988530;28;20352;-58
2023/07/18 12:19:07;;;;;;;3.15;0.80;;;;;;;;;;4990207;28;20201;-58
2023/07/18 12:21:32;;;;;;;2.95;0.98;;;;;;;;;;4990256;28;20228;-58
2023/07/18 12:23:57;;;;;;;4.88;1.10;;;;;;;;;;4988903;28;20549;-58
2023/07/18 12:26:23;;;;;;;6.47;1.20;;;;;;;;;;4989741;28;20303;-58
2023/07/18 12:28:48;;;;;;;3.53;1.08;;;;;;;;;;4990172;28;20669;-59
2023/07/18 12:31:15;;;;;;;4.15;0.95;;;;;;;;;;4989143;28;20221;-59
2023/07/18 12:33:40;;;;;;;3.08;0.93;;;;;;;;;;4989061;28;20227;-58
2023/07/18 12:36:05;;;;;;;1.80;0.82;;;;;;;;;;4989346;28;20320;-58
2023/07/18 12:38:31;;;;;;;2.85;0.77;;;;;;;;;;4990801;28;20221;-59
2023/07/18 12:40:56;;;;;;;5.78;0.98;;;;;;;;;;4987485;28;20241;-58
2023/07/18 12:43:21;;;;;;;3.28;0.73;;;;;;;;;;4988296;28;20225;-58
2023/07/18 12:45:47;;;;;;;4.40;0.80;;;;;;;;;;4990186;28;20229;-58
2023/07/18 12:48:12;;;;;;;2.50;0.75;;;;;;;;;;4988096;28;20217;-59
2023/07/18 12:50:37;;;;;;;3.17;0.80;;;;;;;;;;4988475;28;20229;-59
2023/07/18 12:53:03;;;;;;;3.30;0.77;;;;;;;;;;4989669;28;20209;-59
2023/07/18 12:55:28;;;;;;;5.32;0.90;;;;;;;;;;4988851;28;20220;-58
2023/07/18 12:57:53;;;;;;;2.25;0.80;;;;;;;;;;4988419;28;20357;-59
2023/07/18 13:00:19;;;;;;;3.97;0.90;;;;;;;;;;4989641;28;20241;-59
2023/07/18 13:02:46;;;;;;;3.65;0.80;;;;;;;;;;4989241;28;20224;-59
2023/07/18 13:05:11;;;;;;;3.47;0.80;;;;;;;;;;4987117;28;20202;-59
2023/07/18 13:07:37;;;;;;;2.75;0.80;;;;;;;;;;4989989;28;20216;-59
2023/07/18 13:10:02;;;;;;;3.25;1.05;;;;;;;;;;4988796;28;20766;-59
2023/07/18 13:12:28;;;;;;;3.67;0.90;;;;;;;;;;4991732;28;20560;-59
2023/07/18 13:14:53;;;;;;;3.80;0.70;;;;;;;;;;4991450;28;20692;-59
2023/07/18 13:17:20;;;;;;;3.17;0.70;;;;;;;;;;4987515;28;20213;-59
2023/07/18 13:19:46;;;;;;;2.80;0.82;;;;;;;;;;4988683;28;20235;-59
2023/07/18 13:22:11;;;;;;;2.65;0.90;;;;;;;;;;4989524;28;20976;-59
2023/07/18 13:24:37;;;;;;;3.55;1.10;;;;;;;;;;4988020;28;20221;-59
2023/07/18 13:27:02;;;;;;;4.10;0.80;;;;;;;;;;4985089;28;20216;-60
2023/07/18 13:29:28;;;;;;;4.03;0.85;;;;;;;;;;4988637;28;20225;-59
2023/07/18 13:31:53;;;;;;;2.13;0.80;;;;;;;;;;4981104;28;20221;-59
2023/07/18 13:34:21;;;;;;;2.97;0.77;;;;;;;;;;4972660;28;20217;-59
2023/07/18 13:36:47;;;;;;;3.22;0.80;;;;;;;;;;4975195;28;20213;-59
2023/07/18 13:39:12;;;;;;;3.35;0.80;;;;;;;;;;4975863;28;20209;-59
2023/07/18 13:41:37;;;;;;;3.92;0.95;;;;;;;;;;4981302;28;20209;-59
2023/07/18 13:44:03;;;;;;;3.80;0.82;;;;;;;;;;4980371;28;20241;-60
2023/07/18 13:46:28;;;;;;;1.90;0.65;;;;;;;;;;4982626;28;20265;-60
2023/07/18 13:48:54;;;;;;;2.78;0.82;;;;;;;;;;4982069;28;20213;-60
2023/07/18 13:51:19;;;;;;;3.17;0.88;;;;;;;;;;4975726;28;20744;-60
2023/07/18 13:53:44;;;;;;;3.85;0.90;;;;;;;;;;4980447;28;20659;-59
2023/07/18 13:56:10;;;;;;;3.03;0.70;;;;;;;;;;4976996;28;20223;-59
2023/07/18 13:58:35;;;;;;;3.03;0.85;;;;;;;;;;4973255;28;20841;-59
2023/07/18 14:01:00;;;;;;;3.90;0.80;;;;;;;;;;4973404;28;20225;-60
2023/07/18 14:03:26;;;;;;;4.63;0.80;;;;;;;;;;4950527;28;20229;-59
2023/07/18 14:05:53;;;;;;;3.75;0.80;;;;;;;;;;4980104;28;20217;-59
2023/07/18 14:08:18;;;;;;;4.10;0.70;;;;;;;;;;4979685;28;20295;-59
2023/07/18 14:10:44;;;;;;;3.40;0.88;;;;;;;;;;4981929;28;20237;-59
2023/07/18 14:13:09;;;;;;;2.88;0.85;;;;;;;;;;4963150;28;20213;-59
2023/07/18 14:15:34;;;;;;;3.65;0.70;;;;;;;;;;4980021;28;20220;-59
2023/07/18 14:18:00;;;;;;;5.47;1.00;;;;;;;;;;4978477;28;20307;-60
2023/07/18 14:20:25;;;;;;;4.70;0.80;;;;;;;;;;4974080;28;20217;-59
2023/07/18 14:22:50;;;;;;;3.65;1.08;;;;;;;;;;4973688;28;20624;-59
2023/07/18 14:25:16;;;;;;;4.47;0.70;;;;;;;;;;4976203;28;20240;-59
2023/07/18 14:27:41;;;;;;;2.22;0.68;;;;;;;;;;4982046;28;20220;-59
2023/07/18 14:30:07;;;;;;;3.55;0.98;;;;;;;;;;4981613;28;20232;-58
2023/07/18 14:32:33;;;;;;;2.70;0.60;;;;;;;;;;4979784;28;20589;-58